sensor_id;sensor_type;location;lat;lon;timestamp;P1;durP1;ratioP1;P2;durP2;ratioP2
15498;SDS011;7851;52.260;6.030;2022-07-29T00:03:05;4.7;;;2.2;;
15498;SDS011;7851;52.260;6.030;2022-07-29T00:03:05;1.9;;;1.8;;
15498;SDS011;7851;52.260;6.030;2022-07-29T00:03:10;2.3;;;2;;
15498;SDS011;7851;52.260;6.030;2022-07-29T00:03:27;2.3;;;1.7;;
15498;SDS011;7851;52.260;6.030;2022-07-29T00:04:27;3.2;;;1.9;;
15498;SDS011;7851;52.260;6.030;2022-07-29T00:05:27;2;;;1.8;;
15498;SDS011;7851;52.260;6.030;2022-07-29T00:06:27;2.1;;;1.9;;
15498;SDS011;7851;52.260;6.030;2022-07-29T00:07:27;1.7;;;1.6;;
15498;SDS011;7851;52.260;6.030;2022-07-29T00:08:27;4;;;1.7;;
15498;SDS011;7851;52.260;6.030;2022-07-29T00:09:27;2.4;;;1.9;;
15498;SDS011;7851;52.260;6.030;2022-07-29T00:10:27;2.3;;;1.9;;
15498;SDS011;7851;52.260;6.030;2022-07-29T00:11:27;3.2;;;1.7;;
15498;SDS011;7851;52.260;6.030;2022-07-29T00:12:27;3.2;;;1.9;;
15498;SDS011;7851;52.260;6.030;2022-07-29T00:13:27;3.4;;;2.1;;
15498;SDS011;7851;52.260;6.030;2022-07-29T00:14:28;2.2;;;1.9;;
15498;SDS011;7851;52.260;6.030;2022-07-29T00:15:27;3.8;;;2;;
15498;SDS011;7851;52.260;6.030;2022-07-29T00:16:27;2;;;1.9;;
15498;SDS011;7851;52.260;6.030;2022-07-29T00:17:27;2.7;;;2;;
15498;SDS011;7851;52.260;6.030;2022-07-29T00:18:27;1.8;;;1.7;;
15498;SDS011;7851;52.260;6.030;2022-07-29T00:19:27;2.8;;;1.8;;
15498;SDS011;7851;52.260;6.030;2022-07-29T00:20:27;3.6;;;2;;
15498;SDS011;7851;52.260;6.030;2022-07-29T00:21:27;3.7;;;2.1;;
15498;SDS011;7851;52.260;6.030;2022-07-29T00:22:27;2.5;;;1.9;;
15498;SDS011;7851;52.260;6.030;2022-07-29T00:23:27;2.3;;;1.8;;
15498;SDS011;7851;52.260;6.030;2022-07-29T00:24:27;2.3;;;2.1;;
15498;SDS011;7851;52.260;6.030;2022-07-29T00:25:27;1.9;;;1.8;;
15498;SDS011;7851;52.260;6.030;2022-07-29T00:26:27;2.6;;;1.9;;
15498;SDS011;7851;52.260;6.030;2022-07-29T00:27:27;1.8;;;1.5;;
15498;SDS011;7851;52.260;6.030;2022-07-29T00:28:27;3.2;;;1.8;;
15498;SDS011;7851;52.260;6.030;2022-07-29T00:29:27;1.8;;;1.7;;
15498;SDS011;7851;52.260;6.030;2022-07-29T00:30:27;3.3;;;1.8;;
15498;SDS011;7851;52.260;6.030;2022-07-29T00:31:27;2.1;;;1.9;;
15498;SDS011;7851;52.260;6.030;2022-07-29T00:32:27;6.2;;;2.1;;
15498;SDS011;7851;52.260;6.030;2022-07-29T00:33:28;6.2;;;2.2;;
15498;SDS011;7851;52.260;6.030;2022-07-29T00:34:27;2.7;;;2.1;;
15498;SDS011;7851;52.260;6.030;2022-07-29T00:35:27;1.9;;;1.8;;
15498;SDS011;7851;52.260;6.030;2022-07-29T00:36:28;3.5;;;1.9;;
15498;SDS011;7851;52.260;6.030;2022-07-29T00:37:27;2.3;;;1.8;;
15498;SDS011;7851;52.260;6.030;2022-07-29T00:38:27;2.2;;;1.9;;
15498;SDS011;7851;52.260;6.030;2022-07-29T00:39:27;3.4;;;2.1;;
15498;SDS011;7851;52.260;6.030;2022-07-29T00:40:27;2.2;;;2;;
15498;SDS011;7851;52.260;6.030;2022-07-29T00:41:27;3;;;1.9;;
15498;SDS011;7851;52.260;6.030;2022-07-29T00:42:27;2.2;;;2;;
15498;SDS011;7851;52.260;6.030;2022-07-29T00:43:28;3.7;;;1.7;;
15498;SDS011;7851;52.260;6.030;2022-07-29T00:44:27;2.1;;;2;;
15498;SDS011;7851;52.260;6.030;2022-07-29T00:45:27;3.5;;;1.9;;
15498;SDS011;7851;52.260;6.030;2022-07-29T00:46:27;2.2;;;2;;
15498;SDS011;7851;52.260;6.030;2022-07-29T00:47:27;3.7;;;2.1;;
15498;SDS011;7851;52.260;6.030;2022-07-29T00:48:27;5.5;;;1.9;;
15498;SDS011;7851;52.260;6.030;2022-07-29T00:49:27;2.2;;;2;;
15498;SDS011;7851;52.260;6.030;2022-07-29T00:50:27;7;;;2.1;;
15498;SDS011;7851;52.260;6.030;2022-07-29T00:51:27;3.9;;;2.1;;
15498;SDS011;7851;52.260;6.030;2022-07-29T00:52:27;4.2;;;2.1;;
15498;SDS011;7851;52.260;6.030;2022-07-29T00:53:27;3.7;;;1.9;;
15498;SDS011;7851;52.260;6.030;2022-07-29T00:54:27;2;;;1.9;;
15498;SDS011;7851;52.260;6.030;2022-07-29T00:55:27;2.1;;;1.9;;
15498;SDS011;7851;52.260;6.030;2022-07-29T00:56:27;2.3;;;2.2;;
15498;SDS011;7851;52.260;6.030;2022-07-29T00:57:27;2.4;;;2.2;;
15498;SDS011;7851;52.260;6.030;2022-07-29T00:58:28;2.7;;;1.9;;
15498;SDS011;7851;52.260;6.030;2022-07-29T00:59:27;3.2;;;2;;
15498;SDS011;7851;52.260;6.030;2022-07-29T01:00:27;2.3;;;1.8;;
15498;SDS011;7851;52.260;6.030;2022-07-29T01:01:27;2.8;;;2;;
15498;SDS011;7851;52.260;6.030;2022-07-29T01:02:27;4.5;;;2;;
15498;SDS011;7851;52.260;6.030;2022-07-29T01:03:27;2.2;;;2;;
15498;SDS011;7851;52.260;6.030;2022-07-29T01:04:27;2.2;;;2;;
15498;SDS011;7851;52.260;6.030;2022-07-29T01:05:27;2.4;;;2.2;;
15498;SDS011;7851;52.260;6.030;2022-07-29T01:06:27;3.8;;;2.5;;
15498;SDS011;7851;52.260;6.030;2022-07-29T01:07:27;2.9;;;2.3;;
15498;SDS011;7851;52.260;6.030;2022-07-29T01:08:27;2.5;;;2;;
15498;SDS011;7851;52.260;6.030;2022-07-29T01:09:27;4.4;;;2.1;;
15498;SDS011;7851;52.260;6.030;2022-07-29T01:10:27;2.3;;;2.1;;
15498;SDS011;7851;52.260;6.030;2022-07-29T01:11:27;4.9;;;2.2;;
15498;SDS011;7851;52.260;6.030;2022-07-29T01:12:28;3.7;;;2.1;;
15498;SDS011;7851;52.260;6.030;2022-07-29T01:13:27;5;;;2.2;;
15498;SDS011;7851;52.260;6.030;2022-07-29T01:14:27;3;;;2.3;;
15498;SDS011;7851;52.260;6.030;2022-07-29T01:15:27;2.6;;;2.4;;
15498;SDS011;7851;52.260;6.030;2022-07-29T01:16:28;2.4;;;2.2;;
15498;SDS011;7851;52.260;6.030;2022-07-29T01:17:28;3.6;;;2.4;;
15498;SDS011;7851;52.260;6.030;2022-07-29T01:18:29;2.8;;;2.1;;
15498;SDS011;7851;52.260;6.030;2022-07-29T01:19:33;2.5;;;2.3;;
15498;SDS011;7851;52.260;6.030;2022-07-29T01:20:30;2.5;;;2.3;;
15498;SDS011;7851;52.260;6.030;2022-07-29T01:21:36;2.9;;;2.1;;
15498;SDS011;7851;52.260;6.030;2022-07-29T01:22:28;2.9;;;2.1;;
15498;SDS011;7851;52.260;6.030;2022-07-29T01:23:39;4;;;2.4;;
15498;SDS011;7851;52.260;6.030;2022-07-29T01:24:30;2.6;;;2.3;;
15498;SDS011;7851;52.260;6.030;2022-07-29T01:26:31;3.2;;;2.3;;
15498;SDS011;7851;52.260;6.030;2022-07-29T01:27:32;2.3;;;2.1;;
15498;SDS011;7851;52.260;6.030;2022-07-29T01:28:38;2.3;;;1.9;;
15498;SDS011;7851;52.260;6.030;2022-07-29T01:29:28;3.3;;;2.2;;
15498;SDS011;7851;52.260;6.030;2022-07-29T01:30:27;4.8;;;2.2;;
15498;SDS011;7851;52.260;6.030;2022-07-29T01:31:28;3.9;;;2.1;;
15498;SDS011;7851;52.260;6.030;2022-07-29T01:32:28;2.4;;;2.2;;
15498;SDS011;7851;52.260;6.030;2022-07-29T01:33:27;2.9;;;2.2;;
15498;SDS011;7851;52.260;6.030;2022-07-29T01:34:29;5.7;;;2.3;;
15498;SDS011;7851;52.260;6.030;2022-07-29T01:35:28;2.2;;;2;;
15498;SDS011;7851;52.260;6.030;2022-07-29T01:36:28;2.6;;;2;;
15498;SDS011;7851;52.260;6.030;2022-07-29T01:37:28;2.3;;;2.1;;
15498;SDS011;7851;52.260;6.030;2022-07-29T01:38:27;3.9;;;2.2;;
15498;SDS011;7851;52.260;6.030;2022-07-29T01:39:29;2.4;;;2.2;;
15498;SDS011;7851;52.260;6.030;2022-07-29T01:40:28;2.1;;;2;;
15498;SDS011;7851;52.260;6.030;2022-07-29T01:41:27;3.7;;;2.2;;
15498;SDS011;7851;52.260;6.030;2022-07-29T01:42:27;3.8;;;1.9;;
15498;SDS011;7851;52.260;6.030;2022-07-29T01:43:29;1.9;;;1.8;;
15498;SDS011;7851;52.260;6.030;2022-07-29T01:44:29;4.1;;;2.2;;
15498;SDS011;7851;52.260;6.030;2022-07-29T01:45:28;2.3;;;2.1;;
15498;SDS011;7851;52.260;6.030;2022-07-29T01:46:28;3.6;;;2.2;;
15498;SDS011;7851;52.260;6.030;2022-07-29T01:47:30;2.6;;;2.4;;
15498;SDS011;7851;52.260;6.030;2022-07-29T01:48:29;3.1;;;1.9;;
15498;SDS011;7851;52.260;6.030;2022-07-29T01:49:28;2.5;;;2.3;;
15498;SDS011;7851;52.260;6.030;2022-07-29T01:50:29;2.3;;;2.1;;
15498;SDS011;7851;52.260;6.030;2022-07-29T01:51:29;2.4;;;2.3;;
15498;SDS011;7851;52.260;6.030;2022-07-29T01:52:27;7.7;;;2.6;;
15498;SDS011;7851;52.260;6.030;2022-07-29T01:53:28;4.8;;;2.4;;
15498;SDS011;7851;52.260;6.030;2022-07-29T01:54:29;2.2;;;2.1;;
15498;SDS011;7851;52.260;6.030;2022-07-29T01:55:28;3.2;;;2.1;;
15498;SDS011;7851;52.260;6.030;2022-07-29T01:56:27;2.5;;;2.3;;
15498;SDS011;7851;52.260;6.030;2022-07-29T01:57:27;2.9;;;2.6;;
15498;SDS011;7851;52.260;6.030;2022-07-29T01:58:27;3.2;;;2.7;;
15498;SDS011;7851;52.260;6.030;2022-07-29T01:59:27;2.5;;;2.3;;
15498;SDS011;7851;52.260;6.030;2022-07-29T02:00:27;2.2;;;2;;
15498;SDS011;7851;52.260;6.030;2022-07-29T02:01:27;2.8;;;2.5;;
15498;SDS011;7851;52.260;6.030;2022-07-29T02:02:27;2.2;;;2.1;;
15498;SDS011;7851;52.260;6.030;2022-07-29T02:03:27;2.5;;;2.3;;
15498;SDS011;7851;52.260;6.030;2022-07-29T02:04:27;4.6;;;2.5;;
15498;SDS011;7851;52.260;6.030;2022-07-29T02:05:27;4;;;2.5;;
15498;SDS011;7851;52.260;6.030;2022-07-29T02:06:27;2.9;;;2.5;;
15498;SDS011;7851;52.260;6.030;2022-07-29T02:07:27;3.2;;;2.6;;
15498;SDS011;7851;52.260;6.030;2022-07-29T02:08:27;2.6;;;2.4;;
15498;SDS011;7851;52.260;6.030;2022-07-29T02:09:27;2.4;;;2.2;;
15498;SDS011;7851;52.260;6.030;2022-07-29T02:10:28;2.7;;;2.5;;
15498;SDS011;7851;52.260;6.030;2022-07-29T02:11:27;6;;;2.5;;
15498;SDS011;7851;52.260;6.030;2022-07-29T02:12:27;4.5;;;2.5;;
15498;SDS011;7851;52.260;6.030;2022-07-29T02:13:27;3.1;;;2.3;;
15498;SDS011;7851;52.260;6.030;2022-07-29T02:14:28;5;;;2.4;;
15498;SDS011;7851;52.260;6.030;2022-07-29T02:15:28;2.3;;;2.1;;
15498;SDS011;7851;52.260;6.030;2022-07-29T02:16:28;3.1;;;2.3;;
15498;SDS011;7851;52.260;6.030;2022-07-29T02:17:27;3.7;;;2.3;;
15498;SDS011;7851;52.260;6.030;2022-07-29T02:18:27;3.5;;;2.3;;
15498;SDS011;7851;52.260;6.030;2022-07-29T02:19:27;2.4;;;2.3;;
15498;SDS011;7851;52.260;6.030;2022-07-29T02:20:27;5.5;;;2.2;;
15498;SDS011;7851;52.260;6.030;2022-07-29T02:21:27;2.2;;;2.1;;
15498;SDS011;7851;52.260;6.030;2022-07-29T02:22:28;2.4;;;2.2;;
15498;SDS011;7851;52.260;6.030;2022-07-29T02:23:27;2.4;;;2.2;;
15498;SDS011;7851;52.260;6.030;2022-07-29T02:24:27;2.1;;;2;;
15498;SDS011;7851;52.260;6.030;2022-07-29T02:25:27;2.5;;;2.3;;
15498;SDS011;7851;52.260;6.030;2022-07-29T02:26:27;2.2;;;2.1;;
15498;SDS011;7851;52.260;6.030;2022-07-29T02:27:27;3.6;;;2.5;;
15498;SDS011;7851;52.260;6.030;2022-07-29T02:28:27;2.4;;;2.2;;
15498;SDS011;7851;52.260;6.030;2022-07-29T02:29:28;6;;;2.5;;
15498;SDS011;7851;52.260;6.030;2022-07-29T02:30:27;2.5;;;2.3;;
15498;SDS011;7851;52.260;6.030;2022-07-29T02:31:28;7.4;;;2.6;;
15498;SDS011;7851;52.260;6.030;2022-07-29T02:32:27;2.9;;;2.7;;
15498;SDS011;7851;52.260;6.030;2022-07-29T02:33:27;2.5;;;2.3;;
15498;SDS011;7851;52.260;6.030;2022-07-29T02:34:27;2.4;;;2.3;;
15498;SDS011;7851;52.260;6.030;2022-07-29T02:35:27;3.4;;;2.2;;
15498;SDS011;7851;52.260;6.030;2022-07-29T02:36:27;2.5;;;2.3;;
15498;SDS011;7851;52.260;6.030;2022-07-29T02:37:27;4;;;2.5;;
15498;SDS011;7851;52.260;6.030;2022-07-29T02:38:27;2.6;;;2.4;;
15498;SDS011;7851;52.260;6.030;2022-07-29T02:39:27;2.7;;;2.3;;
15498;SDS011;7851;52.260;6.030;2022-07-29T02:40:27;3;;;2.2;;
15498;SDS011;7851;52.260;6.030;2022-07-29T02:41:28;2.7;;;2.3;;
15498;SDS011;7851;52.260;6.030;2022-07-29T02:42:27;2.7;;;2.5;;
15498;SDS011;7851;52.260;6.030;2022-07-29T02:43:27;3.9;;;2.4;;
15498;SDS011;7851;52.260;6.030;2022-07-29T02:44:27;3.1;;;2.3;;
15498;SDS011;7851;52.260;6.030;2022-07-29T02:45:27;4.7;;;2.7;;
15498;SDS011;7851;52.260;6.030;2022-07-29T02:46:28;2.7;;;2.3;;
15498;SDS011;7851;52.260;6.030;2022-07-29T02:47:27;3.3;;;2.3;;
15498;SDS011;7851;52.260;6.030;2022-07-29T02:48:27;2.5;;;2.3;;
15498;SDS011;7851;52.260;6.030;2022-07-29T02:49:29;2.8;;;2.3;;
15498;SDS011;7851;52.260;6.030;2022-07-29T02:50:28;2.5;;;2.3;;
15498;SDS011;7851;52.260;6.030;2022-07-29T02:51:28;2.3;;;2.2;;
15498;SDS011;7851;52.260;6.030;2022-07-29T02:52:28;2.8;;;2.2;;
15498;SDS011;7851;52.260;6.030;2022-07-29T02:53:27;2.5;;;2.3;;
15498;SDS011;7851;52.260;6.030;2022-07-29T02:54:29;4;;;2.4;;
15498;SDS011;7851;52.260;6.030;2022-07-29T02:55:29;3.5;;;2.5;;
15498;SDS011;7851;52.260;6.030;2022-07-29T02:56:27;2.4;;;2.2;;
15498;SDS011;7851;52.260;6.030;2022-07-29T02:57:29;2.6;;;2.5;;
15498;SDS011;7851;52.260;6.030;2022-07-29T02:58:27;2.4;;;2.2;;
15498;SDS011;7851;52.260;6.030;2022-07-29T02:59:27;3.4;;;2.3;;
15498;SDS011;7851;52.260;6.030;2022-07-29T03:00:27;2.5;;;2.2;;
15498;SDS011;7851;52.260;6.030;2022-07-29T03:01:28;3.1;;;2.4;;
15498;SDS011;7851;52.260;6.030;2022-07-29T03:02:27;2.3;;;2.1;;
15498;SDS011;7851;52.260;6.030;2022-07-29T03:03:28;3.2;;;2.4;;
15498;SDS011;7851;52.260;6.030;2022-07-29T03:04:27;2.7;;;2.5;;
15498;SDS011;7851;52.260;6.030;2022-07-29T03:05:27;2.3;;;2.2;;
15498;SDS011;7851;52.260;6.030;2022-07-29T03:06:27;2.7;;;2.4;;
15498;SDS011;7851;52.260;6.030;2022-07-29T03:07:27;2.2;;;2;;
15498;SDS011;7851;52.260;6.030;2022-07-29T03:08:27;2.6;;;2.4;;
15498;SDS011;7851;52.260;6.030;2022-07-29T03:09:27;2.1;;;2;;
15498;SDS011;7851;52.260;6.030;2022-07-29T03:10:27;2.5;;;2.3;;
15498;SDS011;7851;52.260;6.030;2022-07-29T03:11:27;2.2;;;1.9;;
15498;SDS011;7851;52.260;6.030;2022-07-29T03:12:27;2.5;;;2.2;;
15498;SDS011;7851;52.260;6.030;2022-07-29T03:13:27;3.4;;;2.3;;
15498;SDS011;7851;52.260;6.030;2022-07-29T03:14:27;3.8;;;2.5;;
15498;SDS011;7851;52.260;6.030;2022-07-29T03:15:27;2.6;;;2.4;;
15498;SDS011;7851;52.260;6.030;2022-07-29T03:16:27;2.3;;;2.1;;
15498;SDS011;7851;52.260;6.030;2022-07-29T03:17:27;2.4;;;2.3;;
15498;SDS011;7851;52.260;6.030;2022-07-29T03:18:27;3.2;;;2.3;;
15498;SDS011;7851;52.260;6.030;2022-07-29T03:19:27;2.6;;;2.3;;
15498;SDS011;7851;52.260;6.030;2022-07-29T03:20:27;2.7;;;2.5;;
15498;SDS011;7851;52.260;6.030;2022-07-29T03:21:27;3.1;;;2.5;;
15498;SDS011;7851;52.260;6.030;2022-07-29T03:22:27;2.5;;;2.3;;
15498;SDS011;7851;52.260;6.030;2022-07-29T03:23:27;3;;;2.8;;
15498;SDS011;7851;52.260;6.030;2022-07-29T03:24:28;3.3;;;2.7;;
15498;SDS011;7851;52.260;6.030;2022-07-29T03:25:27;2.6;;;2.4;;
15498;SDS011;7851;52.260;6.030;2022-07-29T03:26:27;3.4;;;2.3;;
15498;SDS011;7851;52.260;6.030;2022-07-29T03:27:27;4.5;;;2.6;;
15498;SDS011;7851;52.260;6.030;2022-07-29T03:28:27;3.5;;;2.5;;
15498;SDS011;7851;52.260;6.030;2022-07-29T03:29:27;2.5;;;2.3;;
15498;SDS011;7851;52.260;6.030;2022-07-29T03:30:27;2.6;;;2.4;;
15498;SDS011;7851;52.260;6.030;2022-07-29T03:31:27;2.8;;;2.6;;
15498;SDS011;7851;52.260;6.030;2022-07-29T03:32:27;2.8;;;2.6;;
15498;SDS011;7851;52.260;6.030;2022-07-29T03:33:27;2.6;;;2.4;;
15498;SDS011;7851;52.260;6.030;2022-07-29T03:34:27;2.5;;;2.2;;
15498;SDS011;7851;52.260;6.030;2022-07-29T03:35:27;2.6;;;2.4;;
15498;SDS011;7851;52.260;6.030;2022-07-29T03:36:27;2.4;;;2.3;;
15498;SDS011;7851;52.260;6.030;2022-07-29T03:37:27;7.7;;;2.7;;
15498;SDS011;7851;52.260;6.030;2022-07-29T03:38:27;6.9;;;2.5;;
15498;SDS011;7851;52.260;6.030;2022-07-29T03:39:27;3;;;2.6;;
15498;SDS011;7851;52.260;6.030;2022-07-29T03:40:27;3.1;;;2.7;;
15498;SDS011;7851;52.260;6.030;2022-07-29T03:41:27;3;;;2.8;;
15498;SDS011;7851;52.260;6.030;2022-07-29T03:42:28;2.9;;;2.7;;
15498;SDS011;7851;52.260;6.030;2022-07-29T03:43:27;3.8;;;2.9;;
15498;SDS011;7851;52.260;6.030;2022-07-29T03:44:27;5;;;2.7;;
15498;SDS011;7851;52.260;6.030;2022-07-29T03:45:27;5.7;;;2.8;;
15498;SDS011;7851;52.260;6.030;2022-07-29T03:46:27;3.2;;;2.9;;
15498;SDS011;7851;52.260;6.030;2022-07-29T03:47:27;4.2;;;2.5;;
15498;SDS011;7851;52.260;6.030;2022-07-29T03:48:27;8.1;;;3.1;;
15498;SDS011;7851;52.260;6.030;2022-07-29T03:49:27;2.6;;;2.4;;
15498;SDS011;7851;52.260;6.030;2022-07-29T03:50:27;4;;;3;;
15498;SDS011;7851;52.260;6.030;2022-07-29T03:51:27;4.2;;;3.2;;
15498;SDS011;7851;52.260;6.030;2022-07-29T03:52:27;3.4;;;2.8;;
15498;SDS011;7851;52.260;6.030;2022-07-29T03:53:27;3.1;;;2.8;;
15498;SDS011;7851;52.260;6.030;2022-07-29T03:54:27;4.1;;;2.6;;
15498;SDS011;7851;52.260;6.030;2022-07-29T03:55:28;2.8;;;2.6;;
15498;SDS011;7851;52.260;6.030;2022-07-29T03:56:27;2.7;;;2.5;;
15498;SDS011;7851;52.260;6.030;2022-07-29T03:57:27;4.5;;;2.5;;
15498;SDS011;7851;52.260;6.030;2022-07-29T03:58:27;3.4;;;2.8;;
15498;SDS011;7851;52.260;6.030;2022-07-29T03:59:27;3.5;;;2.5;;
15498;SDS011;7851;52.260;6.030;2022-07-29T04:00:27;2.7;;;2.5;;
15498;SDS011;7851;52.260;6.030;2022-07-29T04:01:27;4.6;;;2.6;;
15498;SDS011;7851;52.260;6.030;2022-07-29T04:02:27;3.1;;;2.6;;
15498;SDS011;7851;52.260;6.030;2022-07-29T04:03:27;2.7;;;2.5;;
15498;SDS011;7851;52.260;6.030;2022-07-29T04:04:27;4;;;2.7;;
15498;SDS011;7851;52.260;6.030;2022-07-29T04:05:28;3.3;;;3;;
15498;SDS011;7851;52.260;6.030;2022-07-29T04:06:27;2.9;;;2.6;;
15498;SDS011;7851;52.260;6.030;2022-07-29T04:07:27;2.8;;;2.5;;
15498;SDS011;7851;52.260;6.030;2022-07-29T04:08:27;2.6;;;2.3;;
15498;SDS011;7851;52.260;6.030;2022-07-29T04:09:27;2.7;;;2.4;;
15498;SDS011;7851;52.260;6.030;2022-07-29T04:10:27;3.4;;;2.3;;
15498;SDS011;7851;52.260;6.030;2022-07-29T04:11:27;3.1;;;2.9;;
15498;SDS011;7851;52.260;6.030;2022-07-29T04:12:27;2.9;;;2.7;;
15498;SDS011;7851;52.260;6.030;2022-07-29T04:13:27;2.8;;;2.6;;
15498;SDS011;7851;52.260;6.030;2022-07-29T04:14:27;3.3;;;2.9;;
15498;SDS011;7851;52.260;6.030;2022-07-29T04:15:27;4.5;;;2.9;;
15498;SDS011;7851;52.260;6.030;2022-07-29T04:16:27;3.2;;;3;;
15498;SDS011;7851;52.260;6.030;2022-07-29T04:17:27;3.6;;;3.2;;
15498;SDS011;7851;52.260;6.030;2022-07-29T04:18:27;4.1;;;2.7;;
15498;SDS011;7851;52.260;6.030;2022-07-29T04:19:27;2.5;;;2.4;;
15498;SDS011;7851;52.260;6.030;2022-07-29T04:20:27;3.7;;;2.7;;
15498;SDS011;7851;52.260;6.030;2022-07-29T04:21:27;2.8;;;2.6;;
15498;SDS011;7851;52.260;6.030;2022-07-29T04:22:27;3.2;;;3;;
15498;SDS011;7851;52.260;6.030;2022-07-29T04:23:27;2.7;;;2.5;;
15498;SDS011;7851;52.260;6.030;2022-07-29T04:24:27;4.6;;;3;;
15498;SDS011;7851;52.260;6.030;2022-07-29T04:25:27;3.8;;;3;;
15498;SDS011;7851;52.260;6.030;2022-07-29T04:26:27;7;;;3.1;;
15498;SDS011;7851;52.260;6.030;2022-07-29T04:27:27;6.8;;;2.7;;
15498;SDS011;7851;52.260;6.030;2022-07-29T04:28:27;3.3;;;3;;
15498;SDS011;7851;52.260;6.030;2022-07-29T04:29:27;3.3;;;2.9;;
15498;SDS011;7851;52.260;6.030;2022-07-29T04:30:27;4.4;;;2.7;;
15498;SDS011;7851;52.260;6.030;2022-07-29T04:31:27;3.2;;;3;;
15498;SDS011;7851;52.260;6.030;2022-07-29T04:32:27;5;;;3.4;;
15498;SDS011;7851;52.260;6.030;2022-07-29T04:33:27;3.5;;;3.1;;
15498;SDS011;7851;52.260;6.030;2022-07-29T04:34:27;3.5;;;3.2;;
15498;SDS011;7851;52.260;6.030;2022-07-29T04:35:27;6.1;;;3.5;;
15498;SDS011;7851;52.260;6.030;2022-07-29T04:36:27;5.6;;;3.5;;
15498;SDS011;7851;52.260;6.030;2022-07-29T04:37:27;3.9;;;3.5;;
15498;SDS011;7851;52.260;6.030;2022-07-29T04:38:27;3.6;;;3.3;;
15498;SDS011;7851;52.260;6.030;2022-07-29T04:39:27;3.6;;;3.4;;
15498;SDS011;7851;52.260;6.030;2022-07-29T04:40:27;4.1;;;3.1;;
15498;SDS011;7851;52.260;6.030;2022-07-29T04:41:27;3.8;;;3.1;;
15498;SDS011;7851;52.260;6.030;2022-07-29T04:42:27;3.5;;;3.2;;
15498;SDS011;7851;52.260;6.030;2022-07-29T04:43:27;3.4;;;3.1;;
15498;SDS011;7851;52.260;6.030;2022-07-29T04:44:27;3.2;;;3;;
15498;SDS011;7851;52.260;6.030;2022-07-29T04:45:27;3.3;;;3;;
15498;SDS011;7851;52.260;6.030;2022-07-29T04:46:27;3.7;;;2.9;;
15498;SDS011;7851;52.260;6.030;2022-07-29T04:47:27;5.2;;;3.5;;
15498;SDS011;7851;52.260;6.030;2022-07-29T04:48:27;2.8;;;2.6;;
15498;SDS011;7851;52.260;6.030;2022-07-29T04:49:27;5.3;;;2.9;;
15498;SDS011;7851;52.260;6.030;2022-07-29T04:50:27;4;;;2.9;;
15498;SDS011;7851;52.260;6.030;2022-07-29T04:51:27;3;;;2.8;;
15498;SDS011;7851;52.260;6.030;2022-07-29T04:52:27;3.2;;;2.9;;
15498;SDS011;7851;52.260;6.030;2022-07-29T04:53:27;3;;;2.8;;
15498;SDS011;7851;52.260;6.030;2022-07-29T04:54:27;3.1;;;2.9;;
15498;SDS011;7851;52.260;6.030;2022-07-29T04:55:27;3.2;;;2.9;;
15498;SDS011;7851;52.260;6.030;2022-07-29T04:56:27;3.5;;;3.2;;
15498;SDS011;7851;52.260;6.030;2022-07-29T04:57:27;3.4;;;3.1;;
15498;SDS011;7851;52.260;6.030;2022-07-29T04:58:27;3.4;;;3.1;;
15498;SDS011;7851;52.260;6.030;2022-07-29T04:59:27;3.4;;;3.1;;
15498;SDS011;7851;52.260;6.030;2022-07-29T05:00:27;11.5;;;3.7;;
15498;SDS011;7851;52.260;6.030;2022-07-29T05:01:27;3.1;;;2.9;;
15498;SDS011;7851;52.260;6.030;2022-07-29T05:02:27;3.2;;;2.9;;
15498;SDS011;7851;52.260;6.030;2022-07-29T05:03:27;4.2;;;2.8;;
15498;SDS011;7851;52.260;6.030;2022-07-29T05:04:27;3.5;;;3.2;;
15498;SDS011;7851;52.260;6.030;2022-07-29T05:05:27;3.3;;;3;;
15498;SDS011;7851;52.260;6.030;2022-07-29T05:06:27;2.9;;;2.7;;
15498;SDS011;7851;52.260;6.030;2022-07-29T05:07:27;3.2;;;3;;
15498;SDS011;7851;52.260;6.030;2022-07-29T05:08:27;3.3;;;3;;
15498;SDS011;7851;52.260;6.030;2022-07-29T05:09:27;3.4;;;2.9;;
15498;SDS011;7851;52.260;6.030;2022-07-29T05:10:28;3.4;;;2.7;;
15498;SDS011;7851;52.260;6.030;2022-07-29T05:11:27;3.1;;;2.8;;
15498;SDS011;7851;52.260;6.030;2022-07-29T05:12:28;3.2;;;2.9;;
15498;SDS011;7851;52.260;6.030;2022-07-29T05:13:27;3.3;;;3;;
15498;SDS011;7851;52.260;6.030;2022-07-29T05:14:27;3.7;;;2.7;;
15498;SDS011;7851;52.260;6.030;2022-07-29T05:15:27;3.1;;;2.8;;
15498;SDS011;7851;52.260;6.030;2022-07-29T05:16:27;5.5;;;3.1;;
15498;SDS011;7851;52.260;6.030;2022-07-29T05:17:27;4;;;3;;
15498;SDS011;7851;52.260;6.030;2022-07-29T05:18:27;5.1;;;2.9;;
15498;SDS011;7851;52.260;6.030;2022-07-29T05:19:27;3.6;;;3.1;;
15498;SDS011;7851;52.260;6.030;2022-07-29T05:20:27;4.7;;;3.2;;
15498;SDS011;7851;52.260;6.030;2022-07-29T05:21:27;3.3;;;3;;
15498;SDS011;7851;52.260;6.030;2022-07-29T05:22:27;3.8;;;2.9;;
15498;SDS011;7851;52.260;6.030;2022-07-29T05:23:27;4.3;;;3;;
15498;SDS011;7851;52.260;6.030;2022-07-29T05:24:27;2.6;;;2.4;;
15498;SDS011;7851;52.260;6.030;2022-07-29T05:25:27;2.9;;;2.7;;
15498;SDS011;7851;52.260;6.030;2022-07-29T05:26:27;3.3;;;2.8;;
15498;SDS011;7851;52.260;6.030;2022-07-29T05:27:27;6;;;3.3;;
15498;SDS011;7851;52.260;6.030;2022-07-29T05:28:27;3.9;;;3.5;;
15498;SDS011;7851;52.260;6.030;2022-07-29T05:29:27;5.6;;;3.4;;
15498;SDS011;7851;52.260;6.030;2022-07-29T05:30:27;4.6;;;3.1;;
15498;SDS011;7851;52.260;6.030;2022-07-29T05:31:27;4.7;;;3.1;;
15498;SDS011;7851;52.260;6.030;2022-07-29T05:32:27;4.5;;;2.8;;
15498;SDS011;7851;52.260;6.030;2022-07-29T05:33:27;4.5;;;3.1;;
15498;SDS011;7851;52.260;6.030;2022-07-29T05:34:27;4;;;3.4;;
15498;SDS011;7851;52.260;6.030;2022-07-29T05:35:27;4.3;;;3.3;;
15498;SDS011;7851;52.260;6.030;2022-07-29T05:36:27;3.6;;;3.3;;
15498;SDS011;7851;52.260;6.030;2022-07-29T05:37:27;6.5;;;3.1;;
15498;SDS011;7851;52.260;6.030;2022-07-29T05:38:27;4.3;;;3.1;;
15498;SDS011;7851;52.260;6.030;2022-07-29T05:39:27;3.2;;;3;;
15498;SDS011;7851;52.260;6.030;2022-07-29T05:40:27;3.3;;;3.1;;
15498;SDS011;7851;52.260;6.030;2022-07-29T05:41:27;3.5;;;3.2;;
15498;SDS011;7851;52.260;6.030;2022-07-29T05:42:27;4.2;;;3;;
15498;SDS011;7851;52.260;6.030;2022-07-29T05:43:27;3.2;;;3;;
15498;SDS011;7851;52.260;6.030;2022-07-29T05:44:27;3.3;;;3.1;;
15498;SDS011;7851;52.260;6.030;2022-07-29T05:45:27;2.5;;;2.3;;
15498;SDS011;7851;52.260;6.030;2022-07-29T05:46:27;8.2;;;3;;
15498;SDS011;7851;52.260;6.030;2022-07-29T05:47:27;2.7;;;2.5;;
15498;SDS011;7851;52.260;6.030;2022-07-29T05:48:27;3.7;;;3.1;;
15498;SDS011;7851;52.260;6.030;2022-07-29T05:49:27;3.1;;;2.9;;
15498;SDS011;7851;52.260;6.030;2022-07-29T05:50:27;4.1;;;2.7;;
15498;SDS011;7851;52.260;6.030;2022-07-29T05:51:27;5.1;;;3.2;;
15498;SDS011;7851;52.260;6.030;2022-07-29T05:52:27;3.4;;;3.1;;
15498;SDS011;7851;52.260;6.030;2022-07-29T05:53:27;3.5;;;3.2;;
15498;SDS011;7851;52.260;6.030;2022-07-29T05:54:27;8.3;;;7.6;;
15498;SDS011;7851;52.260;6.030;2022-07-29T05:55:27;8.1;;;7.6;;
15498;SDS011;7851;52.260;6.030;2022-07-29T05:56:27;9.9;;;7.6;;
15498;SDS011;7851;52.260;6.030;2022-07-29T05:57:27;8.1;;;7.6;;
15498;SDS011;7851;52.260;6.030;2022-07-29T05:58:27;8.9;;;8.1;;
15498;SDS011;7851;52.260;6.030;2022-07-29T05:59:27;8.7;;;8.1;;
15498;SDS011;7851;52.260;6.030;2022-07-29T06:00:27;9.6;;;8.9;;
15498;SDS011;7851;52.260;6.030;2022-07-29T06:01:27;8.9;;;8.2;;
15498;SDS011;7851;52.260;6.030;2022-07-29T06:02:27;8.6;;;7.9;;
15498;SDS011;7851;52.260;6.030;2022-07-29T06:03:27;8.8;;;8.2;;
15498;SDS011;7851;52.260;6.030;2022-07-29T06:04:27;9;;;8.3;;
15498;SDS011;7851;52.260;6.030;2022-07-29T06:05:27;8.7;;;8;;
15498;SDS011;7851;52.260;6.030;2022-07-29T06:06:27;8.5;;;7.9;;
15498;SDS011;7851;52.260;6.030;2022-07-29T06:07:27;8.7;;;8.2;;
15498;SDS011;7851;52.260;6.030;2022-07-29T06:08:27;10.5;;;8.3;;
15498;SDS011;7851;52.260;6.030;2022-07-29T06:09:27;8.6;;;7.9;;
15498;SDS011;7851;52.260;6.030;2022-07-29T06:10:27;8.6;;;8.1;;
15498;SDS011;7851;52.260;6.030;2022-07-29T06:11:27;9.9;;;7.8;;
15498;SDS011;7851;52.260;6.030;2022-07-29T06:12:28;8.4;;;7.8;;
15498;SDS011;7851;52.260;6.030;2022-07-29T06:13:27;8.1;;;7.5;;
15498;SDS011;7851;52.260;6.030;2022-07-29T06:14:27;8.7;;;8;;
15498;SDS011;7851;52.260;6.030;2022-07-29T06:15:27;8.5;;;7.8;;
15498;SDS011;7851;52.260;6.030;2022-07-29T06:16:28;8.5;;;7.7;;
15498;SDS011;7851;52.260;6.030;2022-07-29T06:17:27;8;;;7.4;;
15498;SDS011;7851;52.260;6.030;2022-07-29T06:18:28;8.3;;;7.6;;
15498;SDS011;7851;52.260;6.030;2022-07-29T06:19:28;8;;;7.5;;
15498;SDS011;7851;52.260;6.030;2022-07-29T06:20:29;8.2;;;7.6;;
15498;SDS011;7851;52.260;6.030;2022-07-29T06:21:28;8.4;;;7.7;;
15498;SDS011;7851;52.260;6.030;2022-07-29T06:22:27;8.4;;;7.8;;